sensor_id;sensor_type;location;lat;lon;timestamp;temperature;humidity
30148;DHT22;16960;49.404;8.248;2023-07-29T00:00:47;23.50;60.30
30148;DHT22;16960;49.404;8.248;2023-07-29T00:03:13;23.40;60.20
30148;DHT22;16960;49.404;8.248;2023-07-29T00:05:41;23.50;60.20
30148;DHT22;16960;49.404;8.248;2023-07-29T00:08:08;23.50;60.30
30148;DHT22;16960;49.404;8.248;2023-07-29T00:10:36;23.50;60.20
30148;DHT22;16960;49.404;8.248;2023-07-29T00:13:05;23.50;60.30
30148;DHT22;16960;49.404;8.248;2023-07-29T00:15:32;23.50;60.40
30148;DHT22;16960;49.404;8.248;2023-07-29T00:17:59;23.40;60.40
30148;DHT22;16960;49.404;8.248;2023-07-29T00:20:26;23.50;60.50
30148;DHT22;16960;49.404;8.248;2023-07-29T00:22:53;23.40;60.50
30148;DHT22;16960;49.404;8.248;2023-07-29T00:25:20;23.40;60.50
30148;DHT22;16960;49.404;8.248;2023-07-29T00:27:47;23.40;60.50
30148;DHT22;16960;49.404;8.248;2023-07-29T00:30:16;23.40;60.60
30148;DHT22;16960;49.404;8.248;2023-07-29T00:32:42;23.40;60.60
30148;DHT22;16960;49.404;8.248;2023-07-29T00:35:09;23.40;60.60
30148;DHT22;16960;49.404;8.248;2023-07-29T00:37:36;23.40;60.70
30148;DHT22;16960;49.404;8.248;2023-07-29T00:40:09;23.40;60.80
30148;DHT22;16960;49.404;8.248;2023-07-29T00:42:39;23.40;60.80
30148;DHT22;16960;49.404;8.248;2023-07-29T00:45:08;23.40;60.80
30148;DHT22;16960;49.404;8.248;2023-07-29T00:47:37;23.40;60.90
30148;DHT22;16960;49.404;8.248;2023-07-29T00:50:05;23.40;60.90
30148;DHT22;16960;49.404;8.248;2023-07-29T00:52:33;23.40;61.70
30148;DHT22;16960;49.404;8.248;2023-07-29T00:55:00;23.40;60.90
30148;DHT22;16960;49.404;8.248;2023-07-29T00:57:28;23.40;61.00
30148;DHT22;16960;49.404;8.248;2023-07-29T00:59:55;23.40;61.10
30148;DHT22;16960;49.404;8.248;2023-07-29T01:02:23;23.40;61.20
30148;DHT22;16960;49.404;8.248;2023-07-29T01:04:53;23.40;61.10
30148;DHT22;16960;49.404;8.248;2023-07-29T01:07:36;23.40;61.10
30148;DHT22;16960;49.404;8.248;2023-07-29T01:10:19;23.40;61.10
30148;DHT22;16960;49.404;8.248;2023-07-29T01:12:53;23.40;61.00
30148;DHT22;16960;49.404;8.248;2023-07-29T01:15:25;23.40;61.00
30148;DHT22;16960;49.404;8.248;2023-07-29T01:17:55;23.40;60.90
30148;DHT22;16960;49.404;8.248;2023-07-29T01:20:25;23.40;60.80
30148;DHT22;16960;49.404;8.248;2023-07-29T01:22:51;23.40;60.90
30148;DHT22;16960;49.404;8.248;2023-07-29T01:25:20;23.40;60.80
30148;DHT22;16960;49.404;8.248;2023-07-29T01:27:48;23.30;60.90
30148;DHT22;16960;49.404;8.248;2023-07-29T01:30:17;23.40;60.80
30148;DHT22;16960;49.404;8.248;2023-07-29T01:32:51;23.30;60.80
30148;DHT22;16960;49.404;8.248;2023-07-29T01:35:23;23.40;60.80
30148;DHT22;16960;49.404;8.248;2023-07-29T01:37:55;23.40;60.80
30148;DHT22;16960;49.404;8.248;2023-07-29T01:40:27;23.30;60.80
30148;DHT22;16960;49.404;8.248;2023-07-29T01:42:54;23.40;60.90
30148;DHT22;16960;49.404;8.248;2023-07-29T01:45:23;23.40;60.90
30148;DHT22;16960;49.404;8.248;2023-07-29T01:47:50;23.40;60.90
30148;DHT22;16960;49.404;8.248;2023-07-29T01:50:17;23.40;60.90
30148;DHT22;16960;49.404;8.248;2023-07-29T01:52:44;23.40;60.90
30148;DHT22;16960;49.404;8.248;2023-07-29T01:55:11;23.40;60.90
30148;DHT22;16960;49.404;8.248;2023-07-29T01:57:39;23.40;60.90
30148;DHT22;16960;49.404;8.248;2023-07-29T02:00:07;23.30;60.90
30148;DHT22;16960;49.404;8.248;2023-07-29T02:02:35;23.30;60.80
30148;DHT22;16960;49.404;8.248;2023-07-29T02:05:02;23.30;60.80
30148;DHT22;16960;49.404;8.248;2023-07-29T02:07:29;23.40;60.80
30148;DHT22;16960;49.404;8.248;2023-07-29T02:09:55;23.30;60.80
30148;DHT22;16960;49.404;8.248;2023-07-29T02:12:22;23.30;60.80
30148;DHT22;16960;49.404;8.248;2023-07-29T02:14:51;23.30;60.80
30148;DHT22;16960;49.404;8.248;2023-07-29T02:17:17;23.30;60.80
30148;DHT22;16960;49.404;8.248;2023-07-29T02:19:45;23.30;60.70
30148;DHT22;16960;49.404;8.248;2023-07-29T02:22:13;23.30;60.70
30148;DHT22;16960;49.404;8.248;2023-07-29T02:24:41;23.30;60.70
30148;DHT22;16960;49.404;8.248;2023-07-29T02:27:08;23.30;60.70
30148;DHT22;16960;49.404;8.248;2023-07-29T02:29:35;23.30;60.60
30148;DHT22;16960;49.404;8.248;2023-07-29T02:32:03;23.30;60.70
30148;DHT22;16960;49.404;8.248;2023-07-29T02:34:31;23.30;60.70
30148;DHT22;16960;49.404;8.248;2023-07-29T02:36:57;23.30;60.70
30148;DHT22;16960;49.404;8.248;2023-07-29T02:39:24;23.30;60.80
30148;DHT22;16960;49.404;8.248;2023-07-29T02:41:51;23.30;60.80
30148;DHT22;16960;49.404;8.248;2023-07-29T02:44:18;23.30;60.80
30148;DHT22;16960;49.404;8.248;2023-07-29T02:46:46;23.20;60.70
30148;DHT22;16960;49.404;8.248;2023-07-29T02:49:14;23.30;61.60
30148;DHT22;16960;49.404;8.248;2023-07-29T02:51:41;23.20;60.80
30148;DHT22;16960;49.404;8.248;2023-07-29T02:54:08;23.30;60.80
30148;DHT22;16960;49.404;8.248;2023-07-29T02:56:34;23.20;60.70
30148;DHT22;16960;49.404;8.248;2023-07-29T02:59:01;23.30;60.80
30148;DHT22;16960;49.404;8.248;2023-07-29T03:01:28;23.20;60.70
30148;DHT22;16960;49.404;8.248;2023-07-29T03:03:55;23.30;60.80
30148;DHT22;16960;49.404;8.248;2023-07-29T03:06:24;23.30;60.90
30148;DHT22;16960;49.404;8.248;2023-07-29T03:08:51;23.20;60.90
30148;DHT22;16960;49.404;8.248;2023-07-29T03:11:18;23.20;60.90
30148;DHT22;16960;49.404;8.248;2023-07-29T03:13:44;23.20;60.90
30148;DHT22;16960;49.404;8.248;2023-07-29T03:16:13;23.30;61.00
30148;DHT22;16960;49.404;8.248;2023-07-29T03:18:40;23.20;60.90
30148;DHT22;16960;49.404;8.248;2023-07-29T03:21:08;23.20;60.90
30148;DHT22;16960;49.404;8.248;2023-07-29T03:23:37;23.20;60.90
30148;DHT22;16960;49.404;8.248;2023-07-29T03:26:04;23.20;60.90
30148;DHT22;16960;49.404;8.248;2023-07-29T03:28:37;23.20;60.80
30148;DHT22;16960;49.404;8.248;2023-07-29T03:31:04;23.30;61.00
30148;DHT22;16960;49.404;8.248;2023-07-29T03:33:31;23.20;60.80
30148;DHT22;16960;49.404;8.248;2023-07-29T03:35:58;23.20;60.80
30148;DHT22;16960;49.404;8.248;2023-07-29T03:38:25;23.20;60.80
30148;DHT22;16960;49.404;8.248;2023-07-29T03:40:54;23.20;60.80
30148;DHT22;16960;49.404;8.248;2023-07-29T03:43:21;23.20;60.70
30148;DHT22;16960;49.404;8.248;2023-07-29T03:45:48;23.20;60.70
30148;DHT22;16960;49.404;8.248;2023-07-29T03:48:15;23.20;61.30
30148;DHT22;16960;49.404;8.248;2023-07-29T03:50:42;23.20;60.50
30148;DHT22;16960;49.404;8.248;2023-07-29T03:53:09;23.20;60.40
30148;DHT22;16960;49.404;8.248;2023-07-29T03:55:36;23.20;60.40
30148;DHT22;16960;49.404;8.248;2023-07-29T03:58:04;23.20;60.40
30148;DHT22;16960;49.404;8.248;2023-07-29T04:00:31;23.20;60.50
30148;DHT22;16960;49.404;8.248;2023-07-29T04:02:58;23.20;60.50
30148;DHT22;16960;49.404;8.248;2023-07-29T04:05:25;23.20;60.50
30148;DHT22;16960;49.404;8.248;2023-07-29T04:07:53;23.20;60.50
30148;DHT22;16960;49.404;8.248;2023-07-29T04:10:20;23.20;60.50
30148;DHT22;16960;49.404;8.248;2023-07-29T04:12:47;23.20;60.40
30148;DHT22;16960;49.404;8.248;2023-07-29T04:15:16;23.20;60.40
30148;DHT22;16960;49.404;8.248;2023-07-29T04:17:43;23.20;60.40
30148;DHT22;16960;49.404;8.248;2023-07-29T04:20:11;23.20;60.40
30148;DHT22;16960;49.404;8.248;2023-07-29T04:22:38;23.20;60.50
30148;DHT22;16960;49.404;8.248;2023-07-29T04:25:06;23.20;60.60
30148;DHT22;16960;49.404;8.248;2023-07-29T04:27:33;23.20;60.60
30148;DHT22;16960;49.404;8.248;2023-07-29T04:30:00;23.20;60.60
30148;DHT22;16960;49.404;8.248;2023-07-29T04:32:28;23.20;60.70
30148;DHT22;16960;49.404;8.248;2023-07-29T04:34:55;23.20;60.70
30148;DHT22;16960;49.404;8.248;2023-07-29T04:37:22;23.20;60.70
30148;DHT22;16960;49.404;8.248;2023-07-29T04:39:49;23.20;61.50
30148;DHT22;16960;49.404;8.248;2023-07-29T04:42:16;23.20;60.70
30148;DHT22;16960;49.404;8.248;2023-07-29T04:44:43;23.20;60.70
30148;DHT22;16960;49.404;8.248;2023-07-29T04:47:10;23.20;60.90
30148;DHT22;16960;49.404;8.248;2023-07-29T04:49:38;23.20;60.80
30148;DHT22;16960;49.404;8.248;2023-07-29T04:52:05;23.20;60.90
30148;DHT22;16960;49.404;8.248;2023-07-29T04:54:32;23.20;61.00
30148;DHT22;16960;49.404;8.248;2023-07-29T04:57:00;23.20;61.10
30148;DHT22;16960;49.404;8.248;2023-07-29T04:59:26;23.20;61.20
30148;DHT22;16960;49.404;8.248;2023-07-29T05:01:53;23.20;61.20
30148;DHT22;16960;49.404;8.248;2023-07-29T05:04:20;23.20;61.30
30148;DHT22;16960;49.404;8.248;2023-07-29T05:06:49;23.20;61.30
30148;DHT22;16960;49.404;8.248;2023-07-29T05:09:24;23.20;61.30
30148;DHT22;16960;49.404;8.248;2023-07-29T05:11:51;23.20;61.20
30148;DHT22;16960;49.404;8.248;2023-07-29T05:14:18;23.20;61.20
30148;DHT22;16960;49.404;8.248;2023-07-29T05:16:45;23.20;61.20
30148;DHT22;16960;49.404;8.248;2023-07-29T05:19:13;23.20;61.20
30148;DHT22;16960;49.404;8.248;2023-07-29T05:21:40;23.20;61.20
30148;DHT22;16960;49.404;8.248;2023-07-29T05:24:08;23.30;61.30
30148;DHT22;16960;49.404;8.248;2023-07-29T05:26:35;23.30;61.30
30148;DHT22;16960;49.404;8.248;2023-07-29T05:29:02;23.20;61.20
30148;DHT22;16960;49.404;8.248;2023-07-29T05:31:29;23.30;61.30
30148;DHT22;16960;49.404;8.248;2023-07-29T05:33:56;23.30;61.40
30148;DHT22;16960;49.404;8.248;2023-07-29T05:36:23;23.30;61.40
30148;DHT22;16960;49.404;8.248;2023-07-29T05:38:51;23.20;61.30
30148;DHT22;16960;49.404;8.248;2023-07-29T05:41:19;23.30;61.40
30148;DHT22;16960;49.404;8.248;2023-07-29T05:43:47;23.30;61.40
30148;DHT22;16960;49.404;8.248;2023-07-29T05:46:13;23.30;61.50
30148;DHT22;16960;49.404;8.248;2023-07-29T05:48:40;23.30;61.50
30148;DHT22;16960;49.404;8.248;2023-07-29T05:51:07;23.30;61.60
30148;DHT22;16960;49.404;8.248;2023-07-29T05:53:34;23.30;61.60
30148;DHT22;16960;49.404;8.248;2023-07-29T05:56:01;23.30;61.60
30148;DHT22;16960;49.404;8.248;2023-07-29T05:58:29;23.30;61.60
30148;DHT22;16960;49.404;8.248;2023-07-29T06:00:57;23.30;61.70
30148;DHT22;16960;49.404;8.248;2023-07-29T06:03:24;23.30;61.70
30148;DHT22;16960;49.404;8.248;2023-07-29T06:05:51;23.30;61.60
30148;DHT22;16960;49.404;8.248;2023-07-29T06:08:18;23.30;61.60
30148;DHT22;16960;49.404;8.248;2023-07-29T06:10:45;23.40;61.80
30148;DHT22;16960;49.404;8.248;2023-07-29T06:13:12;23.30;61.70
30148;DHT22;16960;49.404;8.248;2023-07-29T06:15:40;23.30;61.80
30148;DHT22;16960;49.404;8.248;2023-07-29T06:18:07;23.30;61.80
30148;DHT22;16960;49.404;8.248;2023-07-29T06:20:34;23.40;61.80
30148;DHT22;16960;49.404;8.248;2023-07-29T06:23:01;23.30;61.80
30148;DHT22;16960;49.404;8.248;2023-07-29T06:25:28;23.40;61.80
30148;DHT22;16960;49.404;8.248;2023-07-29T06:27:55;23.40;61.90
30148;DHT22;16960;49.404;8.248;2023-07-29T06:30:23;23.40;61.80
30148;DHT22;16960;49.404;8.248;2023-07-29T06:32:52;23.40;61.80
30148;DHT22;16960;49.404;8.248;2023-07-29T06:35:19;23.40;61.90
30148;DHT22;16960;49.404;8.248;2023-07-29T06:37:46;23.40;61.90
30148;DHT22;16960;49.404;8.248;2023-07-29T06:40:13;23.40;61.90
30148;DHT22;16960;49.404;8.248;2023-07-29T06:42:40;23.40;61.90
30148;DHT22;16960;49.404;8.248;2023-07-29T06:45:08;23.40;61.90
30148;DHT22;16960;49.404;8.248;2023-07-29T06:47:35;23.40;61.80
30148;DHT22;16960;49.404;8.248;2023-07-29T06:50:04;23.40;61.80
30148;DHT22;16960;49.404;8.248;2023-07-29T06:52:31;23.40;61.80
30148;DHT22;16960;49.404;8.248;2023-07-29T06:54:58;23.50;62.00
30148;DHT22;16960;49.404;8.248;2023-07-29T06:57:25;23.50;61.90
30148;DHT22;16960;49.404;8.248;2023-07-29T06:59:52;23.50;62.10
30148;DHT22;16960;49.404;8.248;2023-07-29T07:02:19;23.50;62.00
30148;DHT22;16960;49.404;8.248;2023-07-29T07:04:46;23.50;62.00
30148;DHT22;16960;49.404;8.248;2023-07-29T07:07:15;23.50;62.10
30148;DHT22;16960;49.404;8.248;2023-07-29T07:09:42;23.50;62.10
30148;DHT22;16960;49.404;8.248;2023-07-29T07:12:09;23.50;62.30
30148;DHT22;16960;49.404;8.248;2023-07-29T07:14:37;23.50;62.40
30148;DHT22;16960;49.404;8.248;2023-07-29T07:17:04;23.60;62.30
30148;DHT22;16960;49.404;8.248;2023-07-29T07:19:31;23.50;62.40
30148;DHT22;16960;49.404;8.248;2023-07-29T07:21:58;23.60;62.50
30148;DHT22;16960;49.404;8.248;2023-07-29T07:24:26;23.50;63.90
30148;DHT22;16960;49.404;8.248;2023-07-29T07:26:53;23.60;63.10
30148;DHT22;16960;49.404;8.248;2023-07-29T07:29:20;23.60;62.90
30148;DHT22;16960;49.404;8.248;2023-07-29T07:31:50;23.60;62.70
30148;DHT22;16960;49.404;8.248;2023-07-29T07:34:18;23.60;62.90
30148;DHT22;16960;49.404;8.248;2023-07-29T07:36:45;23.60;63.10
30148;DHT22;16960;49.404;8.248;2023-07-29T07:39:11;23.60;63.20
30148;DHT22;16960;49.404;8.248;2023-07-29T07:41:40;23.70;63.50
30148;DHT22;16960;49.404;8.248;2023-07-29T07:44:08;23.60;63.40
30148;DHT22;16960;49.404;8.248;2023-07-29T07:46:36;23.70;63.50
30148;DHT22;16960;49.404;8.248;2023-07-29T07:49:03;23.70;63.60
30148;DHT22;16960;49.404;8.248;2023-07-29T07:51:30;23.70;63.70
30148;DHT22;16960;49.404;8.248;2023-07-29T07:53:57;23.70;63.30
30148;DHT22;16960;49.404;8.248;2023-07-29T07:56:24;23.70;63.40
30148;DHT22;16960;49.404;8.248;2023-07-29T07:58:52;23.70;63.40
30148;DHT22;16960;49.404;8.248;2023-07-29T08:01:19;23.70;63.20
30148;DHT22;16960;49.404;8.248;2023-07-29T08:03:46;23.70;63.00
30148;DHT22;16960;49.404;8.248;2023-07-29T08:06:13;23.70;62.90
30148;DHT22;16960;49.404;8.248;2023-07-29T08:08:40;23.70;62.90
30148;DHT22;16960;49.404;8.248;2023-07-29T08:11:07;23.70;62.70
30148;DHT22;16960;49.404;8.248;2023-07-29T08:13:34;23.70;62.70
30148;DHT22;16960;49.404;8.248;2023-07-29T08:16:02;23.70;62.80
30148;DHT22;16960;49.404;8.248;2023-07-29T08:18:29;23.70;63.30
30148;DHT22;16960;49.404;8.248;2023-07-29T08:20:58;23.70;62.80
30148;DHT22;16960;49.404;8.248;2023-07-29T08:23:25;23.70;62.60
30148;DHT22;16960;49.404;8.248;2023-07-29T08:25:56;23.70;62.60
30148;DHT22;16960;49.404;8.248;2023-07-29T08:28:27;23.70;62.60
30148;DHT22;16960;49.404;8.248;2023-07-29T08:30:54;23.70;62.50
30148;DHT22;16960;49.404;8.248;2023-07-29T08:33:22;23.70;62.30
30148;DHT22;16960;49.404;8.248;2023-07-29T08:35:49;23.80;62.10
30148;DHT22;16960;49.404;8.248;2023-07-29T08:38:16;23.80;62.40
30148;DHT22;16960;49.404;8.248;2023-07-29T08:40:49;23.80;62.30
30148;DHT22;16960;49.404;8.248;2023-07-29T08:43:19;23.80;62.00
30148;DHT22;16960;49.404;8.248;2023-07-29T08:45:46;23.80;62.00
30148;DHT22;16960;49.404;8.248;2023-07-29T08:48:15;23.80;61.90
30148;DHT22;16960;49.404;8.248;2023-07-29T08:50:46;23.90;61.80
30148;DHT22;16960;49.404;8.248;2023-07-29T08:53:14;23.90;61.70
30148;DHT22;16960;49.404;8.248;2023-07-29T08:55:41;23.90;61.60
30148;DHT22;16960;49.404;8.248;2023-07-29T08:58:08;23.90;61.60
30148;DHT22;16960;49.404;8.248;2023-07-29T09:00:35;23.90;61.60
30148;DHT22;16960;49.404;8.248;2023-07-29T09:03:02;23.90;61.40
30148;DHT22;16960;49.404;8.248;2023-07-29T09:05:33;23.90;61.40
30148;DHT22;16960;49.404;8.248;2023-07-29T09:08:02;23.90;61.40
30148;DHT22;16960;49.404;8.248;2023-07-29T09:10:35;24.00;61.30
30148;DHT22;16960;49.404;8.248;2023-07-29T09:13:03;24.00;61.30
30148;DHT22;16960;49.404;8.248;2023-07-29T09:15:33;24.00;61.10
30148;DHT22;16960;49.404;8.248;2023-07-29T09:18:09;24.00;60.90
30148;DHT22;16960;49.404;8.248;2023-07-29T09:20:36;24.00;60.80
30148;DHT22;16960;49.404;8.248;2023-07-29T09:23:07;24.10;60.80
30148;DHT22;16960;49.404;8.248;2023-07-29T09:25:34;24.10;60.80
30148;DHT22;16960;49.404;8.248;2023-07-29T09:28:08;24.10;60.80
30148;DHT22;16960;49.404;8.248;2023-07-29T09:30:35;24.10;60.70
30148;DHT22;16960;49.404;8.248;2023-07-29T09:33:02;24.20;60.60
30148;DHT22;16960;49.404;8.248;2023-07-29T09:35:32;24.20;60.60
30148;DHT22;16960;49.404;8.248;2023-07-29T09:37:59;24.20;60.60
30148;DHT22;16960;49.404;8.248;2023-07-29T09:40:27;24.20;60.60
30148;DHT22;16960;49.404;8.248;2023-07-29T09:42:55;24.30;60.70
30148;DHT22;16960;49.404;8.248;2023-07-29T09:45:23;24.30;60.70
30148;DHT22;16960;49.404;8.248;2023-07-29T09:47:51;24.30;60.50
30148;DHT22;16960;49.404;8.248;2023-07-29T09:50:18;24.30;60.40
30148;DHT22;16960;49.404;8.248;2023-07-29T09:52:45;24.40;60.30
30148;DHT22;16960;49.404;8.248;2023-07-29T09:55:17;24.40;60.20
30148;DHT22;16960;49.404;8.248;2023-07-29T09:57:46;24.40;60.10
30148;DHT22;16960;49.404;8.248;2023-07-29T10:00:13;24.40;60.00
30148;DHT22;16960;49.404;8.248;2023-07-29T10:02:41;24.50;60.00
30148;DHT22;16960;49.404;8.248;2023-07-29T10:05:09;24.50;59.80
30148;DHT22;16960;49.404;8.248;2023-07-29T10:07:37;24.50;59.80
30148;DHT22;16960;49.404;8.248;2023-07-29T10:10:05;24.50;59.60
30148;DHT22;16960;49.404;8.248;2023-07-29T10:12:33;24.60;59.50
30148;DHT22;16960;49.404;8.248;2023-07-29T10:15:03;24.60;59.50
30148;DHT22;16960;49.404;8.248;2023-07-29T10:17:31;24.60;59.40
30148;DHT22;16960;49.404;8.248;2023-07-29T10:20:00;24.60;59.30
30148;DHT22;16960;49.404;8.248;2023-07-29T10:22:29;24.70;59.30
30148;DHT22;16960;49.404;8.248;2023-07-29T10:25:03;24.70;59.30
30148;DHT22;16960;49.404;8.248;2023-07-29T10:27:35;24.70;59.30
30148;DHT22;16960;49.404;8.248;2023-07-29T10:30:06;24.70;59.20
30148;DHT22;16960;49.404;8.248;2023-07-29T10:32:33;24.80;59.10
30148;DHT22;16960;49.404;8.248;2023-07-29T10:35:00;24.80;59.00
30148;DHT22;16960;49.404;8.248;2023-07-29T10:37:27;24.80;58.90
30148;DHT22;16960;49.404;8.248;2023-07-29T10:39:55;24.90;58.90
30148;DHT22;16960;49.404;8.248;2023-07-29T10:42:22;24.90;58.60
30148;DHT22;16960;49.404;8.248;2023-07-29T10:44:50;25.00;58.10
30148;DHT22;16960;49.404;8.248;2023-07-29T10:47:21;25.00;57.80
30148;DHT22;16960;49.404;8.248;2023-07-29T10:49:51;25.00;57.70
30148;DHT22;16960;49.404;8.248;2023-07-29T10:52:29;25.10;57.60
30148;DHT22;16960;49.404;8.248;2023-07-29T10:54:56;25.10;57.60
30148;DHT22;16960;49.404;8.248;2023-07-29T10:57:31;25.10;57.70
30148;DHT22;16960;49.404;8.248;2023-07-29T10:59:59;25.20;57.70
30148;DHT22;16960;49.404;8.248;2023-07-29T11:02:31;25.20;57.60
30148;DHT22;16960;49.404;8.248;2023-07-29T11:04:59;25.20;57.40
30148;DHT22;16960;49.404;8.248;2023-07-29T11:07:26;25.30;57.20
30148;DHT22;16960;49.404;8.248;2023-07-29T11:09:59;25.30;57.10
30148;DHT22;16960;49.404;8.248;2023-07-29T11:12:40;25.30;57.10
30148;DHT22;16960;49.404;8.248;2023-07-29T11:15:17;25.30;56.80
30148;DHT22;16960;49.404;8.248;2023-07-29T11:17:46;25.40;56.40
30148;DHT22;16960;49.404;8.248;2023-07-29T11:20:14;25.40;56.10
30148;DHT22;16960;49.404;8.248;2023-07-29T11:22:42;25.50;56.00
30148;DHT22;16960;49.404;8.248;2023-07-29T11:25:10;25.50;55.70
30148;DHT22;16960;49.404;8.248;2023-07-29T11:27:38;25.60;55.80
30148;DHT22;16960;49.404;8.248;2023-07-29T11:30:07;25.50;55.60
30148;DHT22;16960;49.404;8.248;2023-07-29T11:32:35;25.50;55.30
30148;DHT22;16960;49.404;8.248;2023-07-29T11:35:05;25.50;55.30
30148;DHT22;16960;49.404;8.248;2023-07-29T11:37:33;25.50;55.40
30148;DHT22;16960;49.404;8.248;2023-07-29T11:40:00;25.50;55.50
30148;DHT22;16960;49.404;8.248;2023-07-29T11:42:28;25.50;55.70
30148;DHT22;16960;49.404;8.248;2023-07-29T11:44:56;25.50;55.70
30148;DHT22;16960;49.404;8.248;2023-07-29T11:47:24;25.50;55.70
30148;DHT22;16960;49.404;8.248;2023-07-29T11:49:52;25.50;55.70
30148;DHT22;16960;49.404;8.248;2023-07-29T11:52:20;25.50;55.70
30148;DHT22;16960;49.404;8.248;2023-07-29T11:54:49;25.50;55.40
30148;DHT22;16960;49.404;8.248;2023-07-29T11:57:16;25.50;55.00
30148;DHT22;16960;49.404;8.248;2023-07-29T11:59:45;25.50;54.70
30148;DHT22;16960;49.404;8.248;2023-07-29T12:02:15;25.50;54.60
30148;DHT22;16960;49.404;8.248;2023-07-29T12:04:44;25.50;54.70
30148;DHT22;16960;49.404;8.248;2023-07-29T12:07:13;25.50;54.60
30148;DHT22;16960;49.404;8.248;2023-07-29T12:09:41;25.50;54.50
30148;DHT22;16960;49.404;8.248;2023-07-29T12:12:09;25.50;54.50
30148;DHT22;16960;49.404;8.248;2023-07-29T12:14:36;25.50;54.60
30148;DHT22;16960;49.404;8.248;2023-07-29T12:17:05;25.50;54.60
30148;DHT22;16960;49.404;8.248;2023-07-29T12:19:33;25.40;54.50
30148;DHT22;16960;49.404;8.248;2023-07-29T12:22:01;25.40;55.40
30148;DHT22;16960;49.404;8.248;2023-07-29T12:24:29;25.40;54.80
30148;DHT22;16960;49.404;8.248;2023-07-29T12:26:58;25.40;54.80
30148;DHT22;16960;49.404;8.248;2023-07-29T12:29:25;25.40;54.90
30148;DHT22;16960;49.404;8.248;2023-07-29T12:31:57;25.40;54.80
30148;DHT22;16960;49.404;8.248;2023-07-29T12:34:26;25.40;55.00
30148;DHT22;16960;49.404;8.248;2023-07-29T12:36:54;25.40;55.00
30148;DHT22;16960;49.404;8.248;2023-07-29T12:39:23;25.40;55.00
30148;DHT22;16960;49.404;8.248;2023-07-29T12:41:51;25.40;55.00
30148;DHT22;16960;49.404;8.248;2023-07-29T12:44:20;25.40;55.00
30148;DHT22;16960;49.404;8.248;2023-07-29T12:46:47;25.50;54.80
30148;DHT22;16960;49.404;8.248;2023-07-29T12:49:14;25.50;55.00
30148;DHT22;16960;49.404;8.248;2023-07-29T12:51:41;25.40;54.90
30148;DHT22;16960;49.404;8.248;2023-07-29T12:54:08;25.50;55.10
30148;DHT22;16960;49.404;8.248;2023-07-29T12:56:35;25.40;55.10
30148;DHT22;16960;49.404;8.248;2023-07-29T12:59:02;25.50;55.10
30148;DHT22;16960;49.404;8.248;2023-07-29T13:01:31;25.50;55.20
30148;DHT22;16960;49.404;8.248;2023-07-29T13:03:58;25.50;55.20
30148;DHT22;16960;49.404;8.248;2023-07-29T13:06:25;25.50;55.20
30148;DHT22;16960;49.404;8.248;2023-07-29T13:08:52;25.50;55.30
30148;DHT22;16960;49.404;8.248;2023-07-29T13:11:19;25.50;55.10
30148;DHT22;16960;49.404;8.248;2023-07-29T13:13:46;25.50;55.00
30148;DHT22;16960;49.404;8.248;2023-07-29T13:16:13;25.50;55.10
30148;DHT22;16960;49.404;8.248;2023-07-29T13:18:41;25.50;55.10
30148;DHT22;16960;49.404;8.248;2023-07-29T13:21:09;25.60;55.10
30148;DHT22;16960;49.404;8.248;2023-07-29T13:23:36;25.60;55.00
30148;DHT22;16960;49.404;8.248;2023-07-29T13:26:03;25.60;54.90
30148;DHT22;16960;49.404;8.248;2023-07-29T13:28:30;25.60;55.00
30148;DHT22;16960;49.404;8.248;2023-07-29T13:30:57;25.60;55.00
30148;DHT22;16960;49.404;8.248;2023-07-29T13:33:24;25.60;54.80
30148;DHT22;16960;49.404;8.248;2023-07-29T13:35:52;25.60;54.70
30148;DHT22;16960;49.404;8.248;2023-07-29T13:38:19;25.60;54.80
30148;DHT22;16960;49.404;8.248;2023-07-29T13:40:46;25.60;54.70
30148;DHT22;16960;49.404;8.248;2023-07-29T13:43:16;25.60;54.60
30148;DHT22;16960;49.404;8.248;2023-07-29T13:45:43;25.60;54.60
30148;DHT22;16960;49.404;8.248;2023-07-29T13:48:10;25.60;54.60
30148;DHT22;16960;49.404;8.248;2023-07-29T13:50:37;25.60;54.50
30148;DHT22;16960;49.404;8.248;2023-07-29T13:53:05;25.60;54.50
30148;DHT22;16960;49.404;8.248;2023-07-29T13:55:32;25.60;54.50
30148;DHT22;16960;49.404;8.248;2023-07-29T13:57:59;25.60;54.40
30148;DHT22;16960;49.404;8.248;2023-07-29T14:00:26;25.60;54.40
30148;DHT22;16960;49.404;8.248;2023-07-29T14:02:53;25.60;54.30
30148;DHT22;16960;49.404;8.248;2023-07-29T14:05:20;25.60;54.30
30148;DHT22;16960;49.404;8.248;2023-07-29T14:07:47;25.60;54.10
30148;DHT22;16960;49.404;8.248;2023-07-29T14:10:15;25.60;54.00
30148;DHT22;16960;49.404;8.248;2023-07-29T14:12:42;25.70;54.20
30148;DHT22;16960;49.404;8.248;2023-07-29T14:15:09;25.70;54.10
30148;DHT22;16960;49.404;8.248;2023-07-29T14:17:36;25.70;54.20
30148;DHT22;16960;49.404;8.248;2023-07-29T14:20:04;25.60;54.20
30148;DHT22;16960;49.404;8.248;2023-07-29T14:22:31;25.70;54.30
30148;DHT22;16960;49.404;8.248;2023-07-29T14:24:58;25.70;54.10
30148;DHT22;16960;49.404;8.248;2023-07-29T14:27:26;25.70;54.20
30148;DHT22;16960;49.404;8.248;2023-07-29T14:29:53;25.70;54.20
30148;DHT22;16960;49.404;8.248;2023-07-29T14:32:20;25.70;54.20
30148;DHT22;16960;49.404;8.248;2023-07-29T14:34:47;25.70;54.20
30148;DHT22;16960;49.404;8.248;2023-07-29T14:37:14;25.70;54.20
30148;DHT22;16960;49.404;8.248;2023-07-29T14:39:41;25.70;54.30
30148;DHT22;16960;49.404;8.248;2023-07-29T14:42:08;25.70;54.20
30148;DHT22;16960;49.404;8.248;2023-07-29T14:44:36;25.70;54.30
30148;DHT22;16960;49.404;8.248;2023-07-29T14:47:03;25.70;54.20
30148;DHT22;16960;49.404;8.248;2023-07-29T14:49:30;25.70;54.20
30148;DHT22;16960;49.404;8.248;2023-07-29T14:51:57;25.70;54.20
30148;DHT22;16960;49.404;8.248;2023-07-29T14:54:24;25.70;54.20
30148;DHT22;16960;49.404;8.248;2023-07-29T14:56:51;25.70;54.50
30148;DHT22;16960;49.404;8.248;2023-07-29T14:59:18;25.70;54.30
30148;DHT22;16960;49.404;8.248;2023-07-29T15:01:46;25.80;54.70
30148;DHT22;16960;49.404;8.248;2023-07-29T15:04:13;25.80;54.70
30148;DHT22;16960;49.404;8.248;2023-07-29T15:06:40;25.80;54.60
30148;DHT22;16960;49.404;8.248;2023-07-29T15:09:07;25.80;54.50
30148;DHT22;16960;49.404;8.248;2023-07-29T15:11:34;25.80;54.40
30148;DHT22;16960;49.404;8.248;2023-07-29T15:14:02;25.80;54.30
30148;DHT22;16960;49.404;8.248;2023-07-29T15:16:30;25.90;54.00
30148;DHT22;16960;49.404;8.248;2023-07-29T15:18:59;26.00;54.60
30148;DHT22;16960;49.404;8.248;2023-07-29T15:21:26;26.00;54.40
30148;DHT22;16960;49.404;8.248;2023-07-29T15:23:53;25.90;53.90
30148;DHT22;16960;49.404;8.248;2023-07-29T15:26:20;26.00;54.10
30148;DHT22;16960;49.404;8.248;2023-07-29T15:28:47;26.00;54.00
30148;DHT22;16960;49.404;8.248;2023-07-29T15:31:14;26.00;53.90
30148;DHT22;16960;49.404;8.248;2023-07-29T15:33:41;26.00;53.90